createdAt,value
2019-01-23T00:00:09.261Z,995.91
2019-01-23T00:01:09.240Z,995.90
2019-01-23T00:02:09.226Z,995.90
2019-01-23T00:03:09.211Z,995.84
2019-01-23T00:04:09.196Z,995.87
2019-01-23T00:05:09.185Z,995.85
2019-01-23T00:06:09.172Z,995.81
2019-01-23T00:07:09.152Z,995.75
2019-01-23T00:08:09.137Z,995.76
2019-01-23T00:09:09.127Z,995.78
2019-01-23T00:10:09.114Z,995.78
2019-01-23T00:11:09.099Z,995.73
2019-01-23T00:12:09.084Z,995.73
2019-01-23T00:13:09.065Z,995.71
2019-01-23T00:14:09.049Z,995.76
2019-01-23T00:15:09.036Z,995.60
2019-01-23T00:16:09.021Z,995.69
2019-01-23T00:17:09.014Z,995.68
2019-01-23T00:18:08.997Z,995.65
2019-01-23T00:19:08.981Z,995.65
2019-01-23T00:20:08.968Z,995.62
2019-01-23T00:21:08.952Z,995.61
2019-01-23T00:22:08.935Z,995.64
2019-01-23T00:23:08.921Z,995.60
2019-01-23T00:24:08.907Z,995.60
2019-01-23T00:25:08.887Z,995.66
2019-01-23T00:26:08.874Z,995.62
2019-01-23T00:27:08.860Z,995.61
2019-01-23T00:28:08.845Z,995.63
2019-01-23T00:29:08.834Z,995.59
2019-01-23T00:30:08.820Z,995.62
2019-01-23T00:31:08.804Z,995.58
2019-01-23T00:32:08.790Z,995.57
2019-01-23T00:33:08.770Z,995.57
2019-01-23T00:34:08.755Z,995.49
2019-01-23T00:35:08.741Z,995.54
2019-01-23T00:36:08.728Z,995.43
2019-01-23T00:37:08.716Z,995.47
2019-01-23T00:38:08.703Z,995.42
2019-01-23T00:39:08.686Z,995.45
2019-01-23T00:40:08.670Z,995.37
2019-01-23T00:41:08.659Z,995.37
2019-01-23T00:42:08.644Z,995.27
2019-01-23T00:43:08.628Z,995.31
2019-01-23T00:44:08.614Z,995.30
2019-01-23T00:45:08.596Z,995.28
2019-01-23T00:46:08.582Z,995.26
2019-01-23T00:47:08.566Z,995.22
2019-01-23T00:48:08.552Z,995.36
2019-01-23T00:49:08.540Z,995.27
2019-01-23T00:50:08.527Z,995.26
2019-01-23T00:51:08.513Z,995.24
2019-01-23T00:52:08.498Z,995.21
2019-01-23T00:53:08.477Z,995.24
2019-01-23T00:54:08.463Z,995.17
2019-01-23T00:55:08.453Z,995.22
2019-01-23T00:56:08.440Z,995.21
2019-01-23T00:57:08.420Z,995.20
2019-01-23T00:58:08.407Z,995.23
2019-01-23T00:59:08.391Z,995.22
2019-01-23T01:00:08.378Z,995.18
2019-01-23T01:01:08.369Z,995.20
2019-01-23T01:02:08.351Z,995.16
2019-01-23T01:03:08.336Z,995.16
2019-01-23T01:04:08.321Z,995.14
2019-01-23T01:05:08.302Z,995.14
2019-01-23T01:06:08.287Z,995.02
2019-01-23T01:07:08.273Z,995.10
2019-01-23T01:08:08.259Z,995.05
2019-01-23T01:09:08.251Z,995.07
2019-01-23T01:10:08.235Z,995.11
2019-01-23T01:11:08.217Z,995.12
2019-01-23T01:12:08.203Z,995.09
2019-01-23T01:13:08.190Z,995.07
2019-01-23T01:14:08.177Z,995.13
2019-01-23T01:15:13.285Z,995.09
2019-01-23T01:16:08.147Z,995.07
2019-01-23T01:17:08.127Z,995.11
2019-01-23T01:18:08.112Z,995.09
2019-01-23T01:19:08.097Z,995.12
2019-01-23T01:20:08.083Z,995.12
2019-01-23T01:21:08.073Z,995.05
2019-01-23T01:22:08.059Z,995.02
2019-01-23T01:23:08.045Z,995.09
2019-01-23T01:24:08.030Z,995.05
2019-01-23T01:25:08.010Z,995.07
2019-01-23T01:26:07.996Z,995.01
2019-01-23T01:27:07.986Z,995.03
2019-01-23T01:28:07.972Z,995.01
2019-01-23T01:29:07.951Z,994.99
2019-01-23T01:30:07.938Z,995.00
2019-01-23T01:31:07.922Z,995.01
2019-01-23T01:32:07.960Z,995.04
2019-01-23T01:33:07.896Z,994.98
2019-01-23T01:34:07.883Z,994.94
2019-01-23T01:35:07.868Z,995.01
2019-01-23T01:36:07.854Z,995.02
2019-01-23T01:37:07.833Z,995.03
2019-01-23T01:38:07.820Z,995.05
2019-01-23T01:39:07.806Z,995.06
2019-01-23T01:40:07.794Z,994.98
2019-01-23T01:41:07.781Z,994.99
2019-01-23T01:42:07.768Z,994.97
2019-01-23T01:43:07.750Z,994.98
2019-01-23T01:44:07.733Z,995.02
2019-01-23T01:45:07.725Z,994.97
2019-01-23T01:46:07.711Z,995.00
2019-01-23T01:47:07.694Z,995.00
2019-01-23T01:48:07.679Z,995.00
2019-01-23T01:49:07.660Z,995.00
2019-01-23T01:50:07.646Z,994.98
2019-01-23T01:51:07.634Z,994.92
2019-01-23T01:52:07.617Z,995.06
2019-01-23T01:53:07.606Z,994.93
2019-01-23T01:54:07.591Z,994.91
2019-01-23T01:55:07.580Z,994.91
2019-01-23T01:56:07.565Z,994.91
2019-01-23T01:57:07.543Z,994.85
2019-01-23T01:58:10.254Z,994.85
2019-01-23T01:59:07.520Z,994.87
2019-01-23T02:00:07.505Z,994.90
2019-01-23T02:01:07.486Z,994.87
2019-01-23T02:02:07.472Z,994.86
2019-01-23T02:03:07.458Z,994.92
2019-01-23T02:04:07.443Z,994.85
2019-01-23T02:05:07.431Z,994.89
2019-01-23T02:06:07.417Z,994.90
2019-01-23T02:07:07.403Z,994.88
2019-01-23T02:08:07.390Z,994.84
2019-01-23T02:09:07.369Z,994.83
2019-01-23T02:10:07.354Z,994.79
2019-01-23T02:11:07.341Z,994.80
2019-01-23T02:12:07.327Z,994.79
2019-01-23T02:13:07.317Z,994.78
2019-01-23T02:14:07.302Z,994.74
2019-01-23T02:15:07.283Z,994.75
2019-01-23T02:16:07.268Z,994.79
2019-01-23T02:17:07.259Z,994.76
2019-01-23T02:18:07.247Z,994.77
2019-01-23T02:19:07.233Z,994.71
2019-01-23T02:20:07.215Z,994.72
2019-01-23T02:21:07.195Z,994.70
2019-01-23T02:22:07.181Z,994.66
2019-01-23T02:23:07.167Z,994.71
2019-01-23T02:24:07.154Z,994.72
2019-01-23T02:25:07.142Z,994.70
2019-01-23T02:26:07.128Z,994.65
2019-01-23T02:27:07.114Z,994.68
2019-01-23T02:28:07.099Z,994.68
2019-01-23T02:29:09.551Z,994.59
2019-01-23T02:30:07.067Z,994.68
2019-01-23T02:31:07.056Z,994.59
2019-01-23T02:32:07.043Z,994.56
2019-01-23T02:33:07.023Z,994.59
2019-01-23T02:34:07.007Z,994.57
2019-01-23T02:35:06.993Z,994.59
2019-01-23T02:36:06.980Z,994.65
2019-01-23T02:37:06.968Z,994.56
2019-01-23T02:38:06.956Z,994.58
2019-01-23T02:39:06.942Z,994.54
2019-01-23T02:40:06.928Z,994.55
2019-01-23T02:41:06.937Z,994.56
2019-01-23T02:42:06.905Z,994.56
2019-01-23T02:43:06.877Z,994.53
2019-01-23T02:44:06.863Z,994.53
2019-01-23T02:45:06.852Z,994.55
2019-01-23T02:46:06.839Z,994.50
2019-01-23T02:47:06.821Z,994.52
2019-01-23T02:48:06.805Z,994.47
2019-01-23T02:49:06.796Z,994.50
2019-01-23T02:50:06.789Z,994.46
2019-01-23T02:51:06.767Z,994.45
2019-01-23T02:52:06.753Z,994.50
2019-01-23T02:53:06.733Z,994.43
2019-01-23T02:54:06.718Z,994.49
2019-01-23T02:55:06.704Z,994.45
2019-01-23T02:56:06.689Z,994.46
2019-01-23T02:57:06.679Z,994.41
2019-01-23T02:58:06.665Z,994.38
2019-01-23T02:59:06.650Z,994.40
2019-01-23T03:00:06.637Z,994.44
2019-01-23T03:01:06.617Z,994.39
2019-01-23T03:02:06.601Z,994.38
2019-01-23T03:03:06.604Z,994.32
2019-01-23T03:04:06.581Z,994.41
2019-01-23T03:05:06.558Z,994.41
2019-01-23T03:06:06.565Z,994.37
2019-01-23T03:07:06.529Z,994.36
2019-01-23T03:08:06.516Z,994.39
2019-01-23T03:09:06.505Z,994.33
2019-01-23T03:10:06.491Z,994.31
2019-01-23T03:11:06.478Z,994.30
2019-01-23T03:12:06.463Z,994.33
2019-01-23T03:13:06.444Z,994.30
2019-01-23T03:14:06.428Z,994.26
2019-01-23T03:15:06.413Z,994.29
2019-01-23T03:16:06.401Z,994.28
2019-01-23T03:17:06.390Z,994.28
2019-01-23T03:18:06.374Z,994.25
2019-01-23T03:19:06.354Z,994.25
2019-01-23T03:20:06.340Z,994.19
2019-01-23T03:21:06.332Z,994.24
2019-01-23T03:22:06.317Z,994.22
2019-01-23T03:23:06.301Z,994.20
2019-01-23T03:24:06.289Z,994.20
2019-01-23T03:25:06.269Z,994.20
2019-01-23T03:26:06.253Z,994.23
2019-01-23T03:27:06.238Z,994.17
2019-01-23T03:28:06.227Z,994.17
2019-01-23T03:29:06.221Z,994.17
2019-01-23T03:30:06.201Z,994.19
2019-01-23T03:31:06.187Z,994.15
2019-01-23T03:32:06.179Z,994.17
2019-01-23T03:33:06.154Z,994.11
2019-01-23T03:34:06.135Z,994.18
2019-01-23T03:35:06.128Z,994.11
2019-01-23T03:36:06.113Z,994.13
2019-01-23T03:37:06.092Z,994.13
2019-01-23T03:38:06.078Z,994.12
2019-01-23T03:39:06.064Z,994.08
2019-01-23T03:40:06.050Z,994.07
2019-01-23T03:41:06.039Z,993.97
2019-01-23T03:42:06.025Z,994.06
2019-01-23T03:43:06.008Z,994.12
2019-01-23T03:44:05.995Z,994.06
2019-01-23T03:45:05.985Z,994.07
2019-01-23T03:46:05.968Z,994.12
2019-01-23T03:47:05.949Z,994.09
2019-01-23T03:48:05.933Z,994.07
2019-01-23T03:49:05.923Z,994.04
2019-01-23T03:50:05.910Z,994.03
2019-01-23T03:51:05.888Z,994.03
2019-01-23T03:52:05.874Z,994.00
2019-01-23T03:53:05.865Z,993.96
2019-01-23T03:54:05.850Z,994.03
2019-01-23T03:55:05.834Z,993.95
2019-01-23T03:56:05.822Z,994.02
2019-01-23T03:57:05.801Z,994.02
2019-01-23T03:58:05.787Z,994.05
2019-01-23T03:59:05.771Z,994.03
2019-01-23T04:00:05.758Z,993.96
2019-01-23T04:01:05.747Z,994.01
2019-01-23T04:02:05.732Z,994.00
2019-01-23T04:03:05.721Z,993.94
2019-01-23T04:04:05.712Z,994.03
2019-01-23T04:05:05.686Z,993.97
2019-01-23T04:06:05.675Z,993.91
2019-01-23T04:07:05.662Z,993.98
2019-01-23T04:08:05.650Z,993.94
2019-01-23T04:09:05.627Z,993.94
2019-01-23T04:10:05.613Z,993.99
2019-01-23T04:11:05.588Z,993.97
2019-01-23T04:12:05.576Z,993.93
2019-01-23T04:13:05.575Z,993.88
2019-01-23T04:14:05.550Z,993.89
2019-01-23T04:15:05.542Z,993.92
2019-01-23T04:16:05.522Z,993.83
2019-01-23T04:17:05.501Z,993.85
2019-01-23T04:18:05.487Z,993.83
2019-01-23T04:19:05.474Z,993.85
2019-01-23T04:20:05.460Z,993.87
2019-01-23T04:21:05.449Z,993.83
2019-01-23T04:22:05.434Z,993.84
2019-01-23T04:23:05.458Z,993.85
2019-01-23T04:24:05.403Z,993.82
2019-01-23T04:25:05.391Z,993.74
2019-01-23T04:26:05.377Z,993.78
2019-01-23T04:27:05.366Z,993.76
2019-01-23T04:28:05.357Z,993.77
2019-01-23T04:29:05.330Z,993.73
2019-01-23T04:30:05.316Z,993.72
2019-01-23T04:31:05.301Z,993.75
2019-01-23T04:32:05.288Z,993.69
2019-01-23T04:33:05.275Z,993.76
2019-01-23T04:34:05.260Z,993.70
2019-01-23T04:35:05.249Z,993.71
2019-01-23T04:36:05.232Z,993.70
2019-01-23T04:37:05.222Z,993.68
2019-01-23T04:38:05.201Z,993.75
2019-01-23T04:39:05.189Z,993.68
2019-01-23T04:40:05.177Z,993.69
2019-01-23T04:41:05.155Z,993.66
2019-01-23T04:42:05.140Z,993.73
2019-01-23T04:43:05.128Z,993.61
2019-01-23T04:44:05.112Z,993.66
2019-01-23T04:45:05.102Z,993.66
2019-01-23T04:46:05.087Z,993.62
2019-01-23T04:47:05.072Z,993.60
2019-01-23T04:48:05.059Z,993.66
2019-01-23T04:49:05.039Z,993.69
2019-01-23T04:50:05.024Z,993.63
2019-01-23T04:51:05.015Z,993.61
2019-01-23T04:52:04.995Z,993.63
2019-01-23T04:53:04.984Z,993.61
2019-01-23T04:54:04.971Z,993.57
2019-01-23T04:55:04.953Z,993.70
2019-01-23T04:56:04.937Z,993.67
2019-01-23T04:57:04.931Z,993.73
2019-01-23T04:58:04.912Z,993.67
2019-01-23T04:59:04.899Z,993.64
2019-01-23T05:00:04.885Z,993.60
2019-01-23T05:01:04.866Z,993.57
2019-01-23T05:02:04.854Z,993.62
2019-01-23T05:03:04.835Z,993.59
2019-01-23T05:04:04.821Z,993.60
2019-01-23T05:05:04.811Z,993.50
2019-01-23T05:06:04.797Z,993.59
2019-01-23T05:07:04.785Z,993.55
2019-01-23T05:08:04.769Z,993.55
2019-01-23T05:09:04.750Z,993.48
2019-01-23T05:10:04.734Z,993.49
2019-01-23T05:11:04.722Z,993.47
2019-01-23T05:12:04.711Z,993.51
2019-01-23T05:13:04.692Z,993.47
2019-01-23T05:14:04.680Z,993.52
2019-01-23T05:15:04.662Z,993.45
2019-01-23T05:16:04.648Z,993.44
2019-01-23T05:17:04.635Z,993.41
2019-01-23T05:18:04.623Z,993.47
2019-01-23T05:19:04.611Z,993.36
2019-01-23T05:20:04.592Z,993.43
2019-01-23T05:21:04.587Z,993.39
2019-01-23T05:22:04.558Z,993.45
2019-01-23T05:23:04.543Z,993.45
2019-01-23T05:24:04.528Z,993.53
2019-01-23T05:25:04.518Z,993.53
2019-01-23T05:26:04.503Z,993.48
2019-01-23T05:27:04.483Z,993.52
2019-01-23T05:28:04.473Z,993.53
2019-01-23T05:29:04.460Z,993.55
2019-01-23T05:30:04.444Z,993.54
2019-01-23T05:31:04.429Z,993.56
2019-01-23T05:32:04.417Z,993.59
2019-01-23T05:33:04.405Z,993.60
2019-01-23T05:34:04.382Z,993.59
2019-01-23T05:35:04.368Z,993.63
2019-01-23T05:36:04.354Z,993.65
2019-01-23T05:37:04.344Z,993.62
2019-01-23T05:38:04.327Z,993.62
2019-01-23T05:39:04.313Z,993.58
2019-01-23T05:40:04.298Z,993.56
2019-01-23T05:41:04.279Z,993.58
2019-01-23T05:42:04.264Z,993.59
2019-01-23T05:43:04.254Z,993.57
2019-01-23T05:44:04.241Z,993.55
2019-01-23T05:45:04.220Z,993.59
2019-01-23T05:46:04.206Z,993.47
2019-01-23T05:47:04.191Z,993.49
2019-01-23T05:48:04.175Z,993.48
2019-01-23T05:49:04.166Z,993.59
2019-01-23T05:50:04.152Z,993.49
2019-01-23T05:51:04.132Z,993.56
2019-01-23T05:52:04.117Z,993.55
2019-01-23T05:53:04.108Z,993.57
2019-01-23T05:54:04.097Z,993.51
2019-01-23T05:55:04.077Z,993.57
2019-01-23T05:56:04.064Z,993.57
2019-01-23T05:57:04.043Z,993.54
2019-01-23T05:58:04.027Z,993.56
2019-01-23T05:59:04.018Z,993.50
2019-01-23T06:00:04.003Z,993.52
2019-01-23T06:01:03.984Z,993.55
2019-01-23T06:02:03.971Z,993.54
2019-01-23T06:03:03.955Z,993.53
2019-01-23T06:04:03.939Z,993.52
2019-01-23T06:05:03.930Z,993.55
2019-01-23T06:06:03.917Z,993.47
2019-01-23T06:07:03.900Z,993.54
2019-01-23T06:08:03.886Z,993.54
2019-01-23T06:09:03.872Z,993.55
2019-01-23T06:10:03.854Z,993.56
2019-01-23T06:11:03.852Z,993.56
2019-01-23T06:12:03.821Z,993.54
2019-01-23T06:13:03.811Z,993.49
2019-01-23T06:14:03.796Z,993.53
2019-01-23T06:15:03.785Z,993.49
2019-01-23T06:16:03.763Z,993.53
2019-01-23T06:17:03.752Z,993.54
2019-01-23T06:18:03.738Z,993.55
2019-01-23T06:19:03.724Z,993.52
2019-01-23T06:20:03.710Z,993.52
2019-01-23T06:21:03.689Z,993.51
2019-01-23T06:22:03.679Z,993.55
2019-01-23T06:23:03.662Z,993.50
2019-01-23T06:24:03.644Z,993.60
2019-01-23T06:25:03.639Z,993.54
2019-01-23T06:26:03.627Z,993.57
2019-01-23T06:27:03.606Z,993.54
2019-01-23T06:28:03.593Z,993.54
2019-01-23T06:29:03.573Z,993.50
2019-01-23T06:30:10.082Z,993.53
2019-01-23T06:31:03.547Z,993.50
2019-01-23T06:32:03.531Z,993.55
2019-01-23T06:33:03.512Z,993.53
2019-01-23T06:34:03.501Z,993.61
2019-01-23T06:35:03.483Z,993.61
2019-01-23T06:36:03.467Z,993.55
2019-01-23T06:37:03.462Z,993.49
2019-01-23T06:38:03.450Z,993.53
2019-01-23T06:39:03.430Z,993.54
2019-01-23T06:40:03.416Z,993.48
2019-01-23T06:41:03.396Z,993.51
2019-01-23T06:42:03.382Z,993.53
2019-01-23T06:43:03.365Z,993.52
2019-01-23T06:44:03.351Z,993.52
2019-01-23T06:45:03.340Z,993.52
2019-01-23T06:46:03.327Z,993.58
2019-01-23T06:47:03.307Z,993.59
2019-01-23T06:48:03.293Z,993.56
2019-01-23T06:49:03.282Z,993.59
2019-01-23T06:50:03.271Z,993.60
2019-01-23T06:51:03.253Z,993.59
2019-01-23T06:52:03.238Z,993.58
2019-01-23T06:53:03.221Z,993.62
2019-01-23T06:54:03.205Z,993.54
2019-01-23T06:55:03.190Z,993.64
2019-01-23T06:56:03.174Z,993.63
2019-01-23T06:57:03.164Z,993.59
2019-01-23T06:58:03.151Z,993.62
2019-01-23T06:59:03.136Z,993.60
2019-01-23T07:00:03.129Z,993.58
2019-01-23T07:01:03.102Z,993.64
2019-01-23T07:02:03.088Z,993.63
2019-01-23T07:03:03.084Z,993.62
2019-01-23T07:04:03.065Z,993.61
2019-01-23T07:05:03.044Z,993.61
2019-01-23T07:06:03.029Z,993.58
2019-01-23T07:07:03.014Z,993.63
2019-01-23T07:08:03.001Z,993.66
2019-01-23T07:09:02.989Z,993.63
2019-01-23T07:10:02.974Z,993.72
2019-01-23T07:11:02.960Z,993.66
2019-01-23T07:12:02.946Z,993.67
2019-01-23T07:13:02.926Z,993.70
2019-01-23T07:14:02.913Z,993.71
2019-01-23T07:15:02.901Z,993.68
2019-01-23T07:16:02.883Z,993.72
2019-01-23T07:17:02.874Z,993.65
2019-01-23T07:18:02.860Z,993.72
2019-01-23T07:19:02.841Z,993.70
2019-01-23T07:20:02.827Z,993.77
2019-01-23T07:21:02.816Z,993.71
2019-01-23T07:22:02.801Z,993.79
2019-01-23T07:23:02.786Z,993.75
2019-01-23T07:24:02.772Z,993.84
2019-01-23T07:25:02.754Z,993.77
2019-01-23T07:26:02.738Z,993.80
2019-01-23T07:27:02.731Z,993.77
2019-01-23T07:28:02.709Z,993.80
2019-01-23T07:29:02.698Z,993.80
2019-01-23T07:30:02.685Z,993.85
2019-01-23T07:31:02.670Z,993.81
2019-01-23T07:32:02.659Z,993.84
2019-01-23T07:33:02.635Z,993.88
2019-01-23T07:34:02.624Z,993.84
2019-01-23T07:35:02.621Z,993.86
2019-01-23T07:36:02.603Z,993.82
2019-01-23T07:37:02.579Z,993.88
2019-01-23T07:38:02.567Z,993.91
2019-01-23T07:39:02.550Z,993.89
2019-01-23T07:40:02.535Z,993.93
2019-01-23T07:41:02.525Z,993.88
2019-01-23T07:42:02.512Z,993.90
2019-01-23T07:43:02.496Z,993.91
2019-01-23T07:44:02.481Z,993.89
2019-01-23T07:45:02.461Z,993.96
2019-01-23T07:46:02.447Z,993.95
2019-01-23T07:47:02.433Z,993.93
2019-01-23T07:48:02.420Z,993.95
2019-01-23T07:49:02.412Z,994.00
2019-01-23T07:50:02.396Z,993.99
2019-01-23T07:51:02.381Z,994.00
2019-01-23T07:52:02.361Z,994.03
2019-01-23T07:53:02.352Z,994.09
2019-01-23T07:54:02.339Z,994.13
2019-01-23T07:55:02.321Z,994.06
2019-01-23T07:56:02.307Z,994.07
2019-01-23T07:57:02.291Z,994.05
2019-01-23T07:58:02.273Z,994.02
2019-01-23T07:59:02.259Z,994.12
2019-01-23T08:00:02.245Z,994.08
2019-01-23T08:01:02.234Z,994.07
2019-01-23T08:02:02.220Z,994.06
2019-01-23T08:03:02.206Z,994.11
2019-01-23T08:04:02.190Z,994.07
2019-01-23T08:05:02.176Z,994.09
2019-01-23T08:06:02.158Z,994.09
2019-01-23T08:07:02.148Z,994.09
2019-01-23T08:08:02.132Z,994.11
2019-01-23T08:09:02.112Z,994.09
2019-01-23T08:10:02.103Z,994.08
2019-01-23T08:11:02.085Z,994.02
2019-01-23T08:12:02.070Z,994.06
2019-01-23T08:13:02.061Z,994.05
2019-01-23T08:14:02.086Z,994.11
2019-01-23T08:15:02.030Z,994.12
2019-01-23T08:16:02.017Z,994.11
2019-01-23T08:17:01.999Z,994.09
2019-01-23T08:18:01.982Z,994.08
2019-01-23T08:19:01.969Z,994.06
2019-01-23T08:20:02.850Z,994.12
2019-01-23T08:21:01.946Z,994.13
2019-01-23T08:22:01.930Z,994.16
2019-01-23T08:23:01.912Z,994.13
2019-01-23T08:24:01.896Z,994.15
2019-01-23T08:25:01.887Z,994.10
2019-01-23T08:26:01.871Z,994.13
2019-01-23T08:27:06.976Z,994.18
2019-01-23T08:28:01.844Z,994.18
2019-01-23T08:29:01.824Z,994.18
2019-01-23T08:30:01.810Z,994.22
2019-01-23T08:31:01.796Z,994.16
2019-01-23T08:32:01.780Z,994.22
2019-01-23T08:33:01.771Z,994.19
2019-01-23T08:34:01.756Z,994.26
2019-01-23T08:35:01.743Z,994.23
2019-01-23T08:36:01.731Z,994.22
2019-01-23T08:37:01.709Z,994.24
2019-01-23T08:38:01.693Z,994.22
2019-01-23T08:39:01.685Z,994.25
2019-01-23T08:40:01.674Z,994.26
2019-01-23T08:41:01.657Z,994.28
2019-01-23T08:42:01.636Z,994.31
2019-01-23T08:43:01.625Z,994.26
2019-01-23T08:44:01.612Z,994.29
2019-01-23T08:45:01.604Z,994.27
2019-01-23T08:46:01.585Z,994.26
2019-01-23T08:47:01.573Z,994.27
2019-01-23T08:48:01.558Z,994.30
2019-01-23T08:49:01.538Z,994.31
2019-01-23T08:50:01.525Z,994.24
2019-01-23T08:51:01.513Z,994.25
2019-01-23T08:52:01.498Z,994.22
2019-01-23T08:53:01.486Z,994.24
2019-01-23T08:54:01.473Z,994.21
2019-01-23T08:55:01.459Z,994.25
2019-01-23T08:56:01.442Z,994.25
2019-01-23T08:57:01.430Z,994.26
2019-01-23T08:58:01.423Z,994.29
2019-01-23T08:59:01.406Z,994.27
2019-01-23T09:00:01.390Z,994.31
2019-01-23T09:01:01.371Z,994.31
2019-01-23T09:02:01.357Z,994.28
2019-01-23T09:03:01.343Z,994.34
2019-01-23T09:04:01.330Z,994.37
2019-01-23T09:05:01.319Z,994.38
2019-01-23T09:06:01.305Z,994.35
2019-01-23T09:07:01.294Z,994.40
2019-01-23T09:08:01.280Z,994.36
2019-01-23T09:09:01.259Z,994.36
2019-01-23T09:10:01.256Z,994.43
2019-01-23T09:11:01.253Z,994.38
2019-01-23T09:12:01.224Z,994.41
2019-01-23T09:13:01.206Z,994.38
2019-01-23T09:14:01.192Z,994.46
2019-01-23T09:15:01.178Z,994.47
2019-01-23T09:16:01.164Z,994.45
2019-01-23T09:17:01.156Z,994.41
2019-01-23T09:18:01.187Z,994.44
2019-01-23T09:19:01.128Z,994.49
2019-01-23T09:20:01.118Z,994.45
2019-01-23T09:21:01.098Z,994.48
2019-01-23T09:22:01.086Z,994.48
2019-01-23T09:23:01.116Z,994.43
2019-01-23T09:24:01.059Z,994.51
2019-01-23T09:25:01.123Z,994.52
2019-01-23T09:26:01.038Z,994.48
2019-01-23T09:27:01.021Z,994.52
2019-01-23T09:28:01.008Z,994.54
2019-01-23T09:29:01.000Z,994.59
2019-01-23T09:30:00.986Z,994.59
2019-01-23T09:31:00.974Z,994.63
2019-01-23T09:32:00.962Z,994.69
2019-01-23T09:33:00.943Z,994.68
2019-01-23T09:34:00.932Z,994.72
2019-01-23T09:35:00.918Z,994.71
2019-01-23T09:36:00.906Z,994.67
2019-01-23T09:37:00.898Z,994.66
2019-01-23T09:38:00.885Z,994.71
2019-01-23T09:39:00.874Z,994.66
2019-01-23T09:40:00.860Z,994.71
2019-01-23T09:41:00.844Z,994.72
2019-01-23T09:42:00.831Z,994.66
2019-01-23T09:43:00.823Z,994.71
2019-01-23T09:44:00.811Z,994.65
2019-01-23T09:45:00.793Z,994.61
2019-01-23T09:46:00.780Z,994.66
2019-01-23T09:47:00.767Z,994.74
2019-01-23T09:48:00.757Z,994.67
2019-01-23T09:49:00.748Z,994.72
2019-01-23T09:50:00.732Z,994.73
2019-01-23T09:51:00.720Z,994.74
2019-01-23T09:52:00.707Z,994.73
2019-01-23T09:53:00.689Z,994.72
2019-01-23T09:54:00.677Z,994.70
2019-01-23T09:55:00.665Z,994.73
2019-01-23T09:56:00.652Z,994.72
2019-01-23T09:57:00.643Z,994.74
2019-01-23T09:58:00.630Z,994.75
2019-01-23T09:59:02.729Z,994.76
2019-01-23T10:00:00.603Z,994.80
2019-01-23T10:01:00.592Z,994.75
2019-01-23T10:02:00.579Z,994.77
2019-01-23T10:03:00.567Z,994.78
2019-01-23T10:04:00.552Z,994.76
2019-01-23T10:05:00.533Z,994.74
2019-01-23T10:06:00.520Z,994.81
2019-01-23T10:07:00.508Z,994.80
2019-01-23T10:08:00.498Z,994.78
2019-01-23T10:09:00.486Z,994.79
2019-01-23T10:10:00.473Z,994.83
2019-01-23T10:11:00.460Z,994.88
2019-01-23T10:12:00.448Z,994.93
2019-01-23T10:13:00.429Z,994.88
2019-01-23T10:14:00.416Z,994.94
2019-01-23T10:15:00.409Z,994.95
2019-01-23T10:16:00.396Z,994.93
2019-01-23T10:17:00.378Z,994.95
2019-01-23T10:18:00.364Z,994.96
2019-01-23T10:19:00.352Z,995.00
2019-01-23T10:20:00.339Z,995.01
2019-01-23T10:21:00.332Z,994.96
2019-01-23T10:22:00.315Z,994.96
2019-01-23T10:23:00.304Z,994.96
2019-01-23T10:24:00.291Z,994.89
2019-01-23T10:25:00.273Z,994.93
2019-01-23T10:26:00.260Z,994.97
2019-01-23T10:27:00.248Z,994.99
2019-01-23T10:28:00.236Z,995.04
2019-01-23T10:29:00.229Z,994.98
2019-01-23T10:30:00.219Z,994.97
2019-01-23T10:31:06.381Z,994.95
2019-01-23T10:32:00.183Z,994.99
2019-01-23T10:33:00.174Z,995.00
2019-01-23T10:34:00.166Z,994.97
2019-01-23T10:35:00.253Z,994.92
2019-01-23T10:36:00.136Z,994.96
2019-01-23T10:37:00.118Z,994.98
2019-01-23T10:38:00.109Z,995.02
2019-01-23T10:39:00.092Z,995.04
2019-01-23T10:40:00.093Z,994.99
2019-01-23T10:41:00.070Z,994.96
2019-01-23T10:42:00.057Z,995.00
2019-01-23T10:43:00.045Z,995.04
2019-01-23T10:44:00.032Z,995.06
2019-01-23T10:45:00.014Z,995.04
2019-01-23T10:46:00.002Z,995.06
2019-01-23T10:46:59.996Z,995.10
2019-01-23T10:47:59.981Z,995.11
2019-01-23T10:48:59.963Z,995.14
2019-01-23T10:49:59.950Z,995.12
2019-01-23T10:50:59.938Z,995.08
2019-01-23T10:51:59.927Z,995.11
2019-01-23T10:52:59.917Z,995.17
2019-01-23T10:53:59.907Z,995.16
2019-01-23T10:54:59.893Z,995.13
2019-01-23T10:56:00.144Z,995.12
2019-01-23T10:56:59.863Z,995.13
2019-01-23T10:57:59.851Z,995.04
2019-01-23T10:58:59.839Z,995.14
2019-01-23T10:59:59.828Z,995.10
2019-01-23T11:00:59.821Z,995.08
2019-01-23T11:01:59.807Z,995.06
2019-01-23T11:02:59.790Z,995.15
2019-01-23T11:03:59.776Z,995.05
2019-01-23T11:04:59.770Z,995.14
2019-01-23T11:05:59.758Z,995.16
2019-01-23T11:06:59.743Z,995.11
2019-01-23T11:07:59.732Z,995.08
2019-01-23T11:08:59.714Z,995.07
2019-01-23T11:09:59.702Z,995.07
2019-01-23T11:10:59.690Z,995.10
2019-01-23T11:11:59.679Z,995.07
2019-01-23T11:12:59.669Z,995.02
2019-01-23T11:13:59.657Z,995.07
2019-01-23T11:14:59.643Z,995.12
2019-01-23T11:15:59.632Z,995.06
2019-01-23T11:16:59.613Z,994.99
2019-01-23T11:17:59.604Z,995.11
2019-01-23T11:18:59.595Z,995.05
2019-01-23T11:19:59.582Z,995.08
2019-01-23T11:20:59.563Z,995.09
2019-01-23T11:21:59.551Z,995.08
2019-01-23T11:22:59.538Z,995.07
2019-01-23T11:23:59.528Z,995.11
2019-01-23T11:24:59.517Z,995.09
2019-01-23T11:25:59.504Z,995.10
2019-01-23T11:26:59.492Z,995.10
2019-01-23T11:27:59.479Z,995.08
2019-01-23T11:28:59.460Z,995.15
2019-01-23T11:29:59.449Z,995.09
2019-01-23T11:30:59.436Z,995.10
2019-01-23T11:31:59.424Z,995.09
2019-01-23T11:32:59.419Z,995.09
2019-01-23T11:33:59.403Z,995.09
2019-01-23T11:34:59.386Z,995.10
2019-01-23T11:35:59.372Z,995.09
2019-01-23T11:36:59.363Z,995.07
2019-01-23T11:37:59.351Z,995.12
2019-01-23T11:38:59.339Z,995.13
2019-01-23T11:39:59.326Z,995.10
2019-01-23T11:40:59.307Z,995.17
2019-01-23T11:41:59.296Z,995.10
2019-01-23T11:42:59.283Z,995.06
2019-01-23T11:43:59.271Z,995.09
2019-01-23T11:44:59.263Z,995.11
2019-01-23T11:45:59.249Z,995.09
2019-01-23T11:46:59.236Z,995.09
2019-01-23T11:47:59.224Z,995.12
2019-01-23T11:48:59.205Z,995.17
2019-01-23T11:49:59.194Z,995.14
2019-01-23T11:50:59.186Z,995.10
2019-01-23T11:51:59.174Z,995.16
2019-01-23T11:52:59.154Z,995.13
2019-01-23T11:53:59.144Z,995.08
2019-01-23T11:54:59.131Z,995.14
2019-01-23T11:55:59.119Z,995.18
2019-01-23T11:56:59.507Z,995.14
2019-01-23T11:57:59.103Z,995.17
2019-01-23T11:58:59.087Z,995.12
2019-01-23T11:59:59.077Z,995.17
2019-01-23T12:00:59.056Z,995.17
2019-01-23T12:01:59.067Z,995.21
2019-01-23T12:02:59.034Z,995.15
2019-01-23T12:03:59.021Z,995.12
2019-01-23T12:04:59.012Z,995.20
2019-01-23T12:05:59.000Z,995.16
2019-01-23T12:06:58.984Z,995.18
2019-01-23T12:07:58.973Z,995.17
2019-01-23T12:08:58.964Z,995.23
2019-01-23T12:09:58.951Z,995.22
2019-01-23T12:10:58.941Z,995.25
2019-01-23T12:11:58.929Z,995.24
2019-01-23T12:12:58.912Z,995.23
2019-01-23T12:13:58.900Z,995.22
2019-01-23T12:14:58.888Z,995.25
2019-01-23T12:15:58.876Z,995.16
2019-01-23T12:16:58.868Z,995.24
2019-01-23T12:17:58.856Z,995.21
2019-01-23T12:18:58.851Z,995.21
2019-01-23T12:19:58.834Z,995.25
2019-01-23T12:20:58.816Z,995.20
2019-01-23T12:21:58.804Z,995.24
2019-01-23T12:22:58.799Z,995.27
2019-01-23T12:23:58.785Z,995.28
2019-01-23T12:24:58.768Z,995.24
2019-01-23T12:25:58.755Z,995.23
2019-01-23T12:26:58.744Z,995.23
2019-01-23T12:27:58.735Z,995.18